sensor_id;sensor_type;location;lat;lon;timestamp;P1;durP1;ratioP1;P2;durP2;ratioP2
57303;SDS011;43150;50.986;18.208;2023-08-17T00:13:52;23.20;;;21.50;;
57303;SDS011;43150;50.986;18.208;2023-08-17T00:16:49;22.70;;;20.70;;
57303;SDS011;43150;50.986;18.208;2023-08-17T00:19:14;23.40;;;21.40;;
57303;SDS011;43150;50.986;18.208;2023-08-17T00:21:40;23.60;;;21.70;;
57303;SDS011;43150;50.986;18.208;2023-08-17T00:24:06;23.80;;;21.80;;
57303;SDS011;43150;50.986;18.208;2023-08-17T00:26:32;23.20;;;21.40;;
57303;SDS011;43150;50.986;18.208;2023-08-17T00:28:57;22.40;;;20.50;;
57303;SDS011;43150;50.986;18.208;2023-08-17T00:31:23;24.00;;;22.20;;
57303;SDS011;43150;50.986;18.208;2023-08-17T00:33:49;24.20;;;22.20;;
57303;SDS011;43150;50.986;18.208;2023-08-17T00:36:14;23.10;;;21.30;;
57303;SDS011;43150;50.986;18.208;2023-08-17T00:38:40;24.10;;;22.10;;
57303;SDS011;43150;50.986;18.208;2023-08-17T00:41:06;22.70;;;20.90;;
57303;SDS011;43150;50.986;18.208;2023-08-17T00:43:31;22.10;;;20.30;;
57303;SDS011;43150;50.986;18.208;2023-08-17T00:45:57;21.30;;;19.60;;
57303;SDS011;43150;50.986;18.208;2023-08-17T00:48:26;20.80;;;19.20;;
57303;SDS011;43150;50.986;18.208;2023-08-17T00:50:52;22.00;;;20.00;;
57303;SDS011;43150;50.986;18.208;2023-08-17T00:53:18;21.50;;;19.70;;
57303;SDS011;43150;50.986;18.208;2023-08-17T00:55:44;21.30;;;19.50;;
57303;SDS011;43150;50.986;18.208;2023-08-17T00:58:10;21.00;;;19.40;;
57303;SDS011;43150;50.986;18.208;2023-08-17T01:00:41;26.30;;;24.20;;
57303;SDS011;43150;50.986;18.208;2023-08-17T01:03:55;22.10;;;20.30;;
57303;SDS011;43150;50.986;18.208;2023-08-17T01:07:25;21.70;;;20.00;;
57303;SDS011;43150;50.986;18.208;2023-08-17T01:10:12;21.40;;;19.60;;
57303;SDS011;43150;50.986;18.208;2023-08-17T01:13:15;20.70;;;19.20;;
57303;SDS011;43150;50.986;18.208;2023-08-17T01:16:31;21.70;;;19.90;;
57303;SDS011;43150;50.986;18.208;2023-08-17T01:19:26;19.20;;;17.50;;
57303;SDS011;43150;50.986;18.208;2023-08-17T01:22:03;17.10;;;15.70;;
57303;SDS011;43150;50.986;18.208;2023-08-17T01:24:32;17.30;;;15.90;;
57303;SDS011;43150;50.986;18.208;2023-08-17T01:27:53;15.30;;;13.90;;
57303;SDS011;43150;50.986;18.208;2023-08-17T01:31:20;15.50;;;14.00;;
57303;SDS011;43150;50.986;18.208;2023-08-17T01:38:18;14.50;;;13.00;;
57303;SDS011;43150;50.986;18.208;2023-08-17T01:41:40;11.70;;;10.70;;
57303;SDS011;43150;50.986;18.208;2023-08-17T01:48:20;11.50;;;10.10;;
57303;SDS011;43150;50.986;18.208;2023-08-17T03:27:15;9.70;;;8.70;;
57303;SDS011;43150;50.986;18.208;2023-08-17T04:19:18;49.30;;;45.00;;
57303;SDS011;43150;50.986;18.208;2023-08-17T05:02:41;7.10;;;5.00;;
57303;SDS011;43150;50.986;18.208;2023-08-17T05:05:08;7.30;;;5.20;;
57303;SDS011;43150;50.986;18.208;2023-08-17T05:07:34;6.20;;;5.10;;
57303;SDS011;43150;50.986;18.208;2023-08-17T05:10:00;6.30;;;5.10;;
57303;SDS011;43150;50.986;18.208;2023-08-17T05:12:28;7.60;;;5.40;;
57303;SDS011;43150;50.986;18.208;2023-08-17T05:14:54;6.80;;;5.50;;
57303;SDS011;43150;50.986;18.208;2023-08-17T05:17:19;5.90;;;5.30;;
57303;SDS011;43150;50.986;18.208;2023-08-17T05:19:49;6.00;;;5.40;;
57303;SDS011;43150;50.986;18.208;2023-08-17T05:22:15;6.00;;;5.20;;
57303;SDS011;43150;50.986;18.208;2023-08-17T05:27:25;7.80;;;5.80;;
57303;SDS011;43150;50.986;18.208;2023-08-17T05:29:50;5.30;;;4.60;;
57303;SDS011;43150;50.986;18.208;2023-08-17T05:32:22;9.10;;;5.10;;
57303;SDS011;43150;50.986;18.208;2023-08-17T05:34:48;6.00;;;4.30;;
57303;SDS011;43150;50.986;18.208;2023-08-17T05:37:13;11.20;;;5.30;;
57303;SDS011;43150;50.986;18.208;2023-08-17T05:39:49;7.50;;;5.10;;
57303;SDS011;43150;50.986;18.208;2023-08-17T05:45:40;14.60;;;5.90;;
57303;SDS011;43150;50.986;18.208;2023-08-17T05:48:18;10.40;;;4.70;;
57303;SDS011;43150;50.986;18.208;2023-08-17T05:51:02;24.10;;;7.60;;
57303;SDS011;43150;50.986;18.208;2023-08-17T05:53:40;29.10;;;7.60;;
57303;SDS011;43150;50.986;18.208;2023-08-17T05:56:06;9.00;;;4.80;;
57303;SDS011;43150;50.986;18.208;2023-08-17T05:58:32;6.00;;;4.20;;
57303;SDS011;43150;50.986;18.208;2023-08-17T06:01:07;9.30;;;4.70;;
57303;SDS011;43150;50.986;18.208;2023-08-17T06:03:36;7.20;;;4.50;;
57303;SDS011;43150;50.986;18.208;2023-08-17T06:06:08;11.40;;;4.50;;
57303;SDS011;43150;50.986;18.208;2023-08-17T06:08:39;5.60;;;4.20;;
57303;SDS011;43150;50.986;18.208;2023-08-17T06:11:25;5.00;;;4.30;;
57303;SDS011;43150;50.986;18.208;2023-08-17T06:13:52;4.40;;;3.80;;
57303;SDS011;43150;50.986;18.208;2023-08-17T06:16:36;5.70;;;4.20;;
57303;SDS011;43150;50.986;18.208;2023-08-17T06:19:17;4.60;;;4.10;;
57303;SDS011;43150;50.986;18.208;2023-08-17T06:34:01;4.60;;;3.80;;
57303;SDS011;43150;50.986;18.208;2023-08-17T06:36:30;3.90;;;3.50;;
57303;SDS011;43150;50.986;18.208;2023-08-17T06:38:56;4.60;;;3.50;;
57303;SDS011;43150;50.986;18.208;2023-08-17T06:41:22;6.90;;;3.80;;
57303;SDS011;43150;50.986;18.208;2023-08-17T06:43:47;3.60;;;3.20;;
57303;SDS011;43150;50.986;18.208;2023-08-17T06:46:12;3.80;;;3.40;;
57303;SDS011;43150;50.986;18.208;2023-08-17T06:48:38;4.80;;;3.90;;
57303;SDS011;43150;50.986;18.208;2023-08-17T06:51:04;4.90;;;3.50;;
57303;SDS011;43150;50.986;18.208;2023-08-17T06:56:59;5.30;;;3.90;;
57303;SDS011;43150;50.986;18.208;2023-08-17T06:59:25;9.20;;;3.50;;
57303;SDS011;43150;50.986;18.208;2023-08-17T07:02:00;4.90;;;3.80;;
57303;SDS011;43150;50.986;18.208;2023-08-17T07:04:34;4.30;;;3.90;;
57303;SDS011;43150;50.986;18.208;2023-08-17T07:07:13;5.40;;;4.10;;
57303;SDS011;43150;50.986;18.208;2023-08-17T07:10:35;4.40;;;3.90;;
57303;SDS011;43150;50.986;18.208;2023-08-17T07:13:01;5.80;;;3.60;;
57303;SDS011;43150;50.986;18.208;2023-08-17T07:15:31;6.80;;;3.80;;
57303;SDS011;43150;50.986;18.208;2023-08-17T07:18:09;4.20;;;3.60;;
57303;SDS011;43150;50.986;18.208;2023-08-17T07:24:17;4.90;;;3.40;;
57303;SDS011;43150;50.986;18.208;2023-08-17T07:36:28;6.00;;;3.70;;
57303;SDS011;43150;50.986;18.208;2023-08-17T07:39:02;4.50;;;3.70;;
57303;SDS011;43150;50.986;18.208;2023-08-17T07:41:32;6.60;;;3.80;;
57303;SDS011;43150;50.986;18.208;2023-08-17T07:47:19;4.80;;;3.70;;
57303;SDS011;43150;50.986;18.208;2023-08-17T07:50:14;5.10;;;4.60;;
57303;SDS011;43150;50.986;18.208;2023-08-17T07:52:40;5.70;;;4.00;;
57303;SDS011;43150;50.986;18.208;2023-08-17T07:55:06;4.90;;;4.50;;
57303;SDS011;43150;50.986;18.208;2023-08-17T07:57:56;7.20;;;5.10;;
57303;SDS011;43150;50.986;18.208;2023-08-17T08:00:23;5.00;;;4.10;;
57303;SDS011;43150;50.986;18.208;2023-08-17T08:03:27;5.40;;;4.20;;
57303;SDS011;43150;50.986;18.208;2023-08-17T08:06:37;6.00;;;4.20;;
57303;SDS011;43150;50.986;18.208;2023-08-17T08:09:08;6.60;;;5.00;;
57303;SDS011;43150;50.986;18.208;2023-08-17T08:20:43;6.80;;;4.40;;
57303;SDS011;43150;50.986;18.208;2023-08-17T08:23:11;5.70;;;4.40;;
57303;SDS011;43150;50.986;18.208;2023-08-17T08:25:56;4.80;;;4.30;;
57303;SDS011;43150;50.986;18.208;2023-08-17T08:28:23;7.80;;;4.50;;
57303;SDS011;43150;50.986;18.208;2023-08-17T08:31:05;4.50;;;4.00;;
57303;SDS011;43150;50.986;18.208;2023-08-17T08:33:51;5.20;;;4.20;;
57303;SDS011;43150;50.986;18.208;2023-08-17T08:36:26;6.00;;;5.20;;
57303;SDS011;43150;50.986;18.208;2023-08-17T08:38:52;5.50;;;4.20;;
57303;SDS011;43150;50.986;18.208;2023-08-17T08:41:17;4.90;;;4.00;;
57303;SDS011;43150;50.986;18.208;2023-08-17T08:43:42;5.80;;;4.10;;
57303;SDS011;43150;50.986;18.208;2023-08-17T08:46:09;5.40;;;4.70;;
57303;SDS011;43150;50.986;18.208;2023-08-17T08:48:34;6.40;;;4.60;;
57303;SDS011;43150;50.986;18.208;2023-08-17T08:51:00;5.70;;;5.20;;
57303;SDS011;43150;50.986;18.208;2023-08-17T08:53:36;4.90;;;4.30;;
57303;SDS011;43150;50.986;18.208;2023-08-17T08:56:03;5.90;;;5.20;;
57303;SDS011;43150;50.986;18.208;2023-08-17T08:58:28;6.40;;;4.90;;
57303;SDS011;43150;50.986;18.208;2023-08-17T09:00:54;6.10;;;5.00;;
57303;SDS011;43150;50.986;18.208;2023-08-17T09:03:21;8.90;;;5.80;;
57303;SDS011;43150;50.986;18.208;2023-08-17T09:05:48;7.00;;;5.30;;
57303;SDS011;43150;50.986;18.208;2023-08-17T09:08:14;6.60;;;5.70;;
57303;SDS011;43150;50.986;18.208;2023-08-17T09:10:41;7.20;;;5.50;;
57303;SDS011;43150;50.986;18.208;2023-08-17T09:13:07;7.30;;;6.30;;
57303;SDS011;43150;50.986;18.208;2023-08-17T09:15:33;5.50;;;4.80;;
57303;SDS011;43150;50.986;18.208;2023-08-17T09:17:58;7.60;;;6.90;;
57303;SDS011;43150;50.986;18.208;2023-08-17T09:20:40;8.70;;;6.20;;
57303;SDS011;43150;50.986;18.208;2023-08-17T09:23:11;8.20;;;5.60;;
57303;SDS011;43150;50.986;18.208;2023-08-17T09:25:38;9.10;;;6.20;;
57303;SDS011;43150;50.986;18.208;2023-08-17T09:28:14;6.10;;;5.40;;
57303;SDS011;43150;50.986;18.208;2023-08-17T09:30:49;7.30;;;5.90;;
57303;SDS011;43150;50.986;18.208;2023-08-17T09:33:15;6.10;;;5.50;;
57303;SDS011;43150;50.986;18.208;2023-08-17T09:35:41;7.60;;;6.90;;
57303;SDS011;43150;50.986;18.208;2023-08-17T09:38:07;8.20;;;7.40;;
57303;SDS011;43150;50.986;18.208;2023-08-17T09:40:33;11.00;;;7.30;;
57303;SDS011;43150;50.986;18.208;2023-08-17T09:42:59;10.30;;;7.50;;
57303;SDS011;43150;50.986;18.208;2023-08-17T09:45:25;9.70;;;6.90;;
57303;SDS011;43150;50.986;18.208;2023-08-17T09:47:51;6.40;;;5.80;;
57303;SDS011;43150;50.986;18.208;2023-08-17T09:50:16;6.80;;;6.00;;
57303;SDS011;43150;50.986;18.208;2023-08-17T09:52:47;8.00;;;6.60;;
57303;SDS011;43150;50.986;18.208;2023-08-17T09:55:12;7.00;;;6.10;;
57303;SDS011;43150;50.986;18.208;2023-08-17T09:57:40;6.50;;;5.80;;
57303;SDS011;43150;50.986;18.208;2023-08-17T10:00:05;7.50;;;6.30;;
57303;SDS011;43150;50.986;18.208;2023-08-17T10:02:32;6.40;;;5.80;;
57303;SDS011;43150;50.986;18.208;2023-08-17T10:04:59;7.00;;;5.30;;
57303;SDS011;43150;50.986;18.208;2023-08-17T10:07:28;8.10;;;5.40;;
57303;SDS011;43150;50.986;18.208;2023-08-17T10:10:04;8.10;;;6.10;;
57303;SDS011;43150;50.986;18.208;2023-08-17T10:12:32;5.90;;;5.40;;
57303;SDS011;43150;50.986;18.208;2023-08-17T10:15:07;6.40;;;5.10;;
57303;SDS011;43150;50.986;18.208;2023-08-17T10:18:17;5.50;;;4.90;;
57303;SDS011;43150;50.986;18.208;2023-08-17T10:20:22;6.70;;;6.10;;
57303;SDS011;43150;50.986;18.208;2023-08-17T10:22:51;6.60;;;5.00;;
57303;SDS011;43150;50.986;18.208;2023-08-17T10:25:17;6.70;;;5.90;;
57303;SDS011;43150;50.986;18.208;2023-08-17T10:27:45;6.70;;;5.90;;
57303;SDS011;43150;50.986;18.208;2023-08-17T10:30:10;5.10;;;4.70;;
57303;SDS011;43150;50.986;18.208;2023-08-17T10:32:36;6.00;;;4.20;;
57303;SDS011;43150;50.986;18.208;2023-08-17T10:35:02;5.20;;;4.80;;
57303;SDS011;43150;50.986;18.208;2023-08-17T10:37:29;8.50;;;5.30;;
57303;SDS011;43150;50.986;18.208;2023-08-17T10:39:55;5.30;;;4.80;;
57303;SDS011;43150;50.986;18.208;2023-08-17T10:42:31;6.70;;;4.80;;
57303;SDS011;43150;50.986;18.208;2023-08-17T10:45:00;5.80;;;4.20;;
57303;SDS011;43150;50.986;18.208;2023-08-17T10:47:29;6.10;;;4.10;;
57303;SDS011;43150;50.986;18.208;2023-08-17T10:49:59;4.70;;;4.30;;
57303;SDS011;43150;50.986;18.208;2023-08-17T10:55:50;5.60;;;4.90;;
57303;SDS011;43150;50.986;18.208;2023-08-17T10:58:46;7.20;;;5.20;;
57303;SDS011;43150;50.986;18.208;2023-08-17T11:01:41;6.60;;;5.00;;
57303;SDS011;43150;50.986;18.208;2023-08-17T11:04:36;6.70;;;4.90;;
57303;SDS011;43150;50.986;18.208;2023-08-17T11:07:51;6.20;;;5.60;;
57303;SDS011;43150;50.986;18.208;2023-08-17T11:13:58;6.30;;;5.60;;
57303;SDS011;43150;50.986;18.208;2023-08-17T11:16:53;9.90;;;5.70;;
57303;SDS011;43150;50.986;18.208;2023-08-17T11:19:47;7.60;;;5.80;;
57303;SDS011;43150;50.986;18.208;2023-08-17T11:22:45;5.80;;;4.80;;
57303;SDS011;43150;50.986;18.208;2023-08-17T11:25:38;5.90;;;5.30;;
57303;SDS011;43150;50.986;18.208;2023-08-17T11:28:34;5.10;;;4.70;;
57303;SDS011;43150;50.986;18.208;2023-08-17T11:34:29;6.20;;;4.90;;
57303;SDS011;43150;50.986;18.208;2023-08-17T11:37:22;8.70;;;5.00;;
57303;SDS011;43150;50.986;18.208;2023-08-17T11:40:17;7.20;;;4.70;;
57303;SDS011;43150;50.986;18.208;2023-08-17T11:43:07;4.80;;;4.20;;
57303;SDS011;43150;50.986;18.208;2023-08-17T11:46:01;6.60;;;4.40;;
57303;SDS011;43150;50.986;18.208;2023-08-17T11:51:43;5.10;;;4.50;;
57303;SDS011;43150;50.986;18.208;2023-08-17T11:54:32;4.20;;;3.90;;
57303;SDS011;43150;50.986;18.208;2023-08-17T11:57:29;5.70;;;4.40;;
57303;SDS011;43150;50.986;18.208;2023-08-17T12:00:23;4.70;;;4.10;;
57303;SDS011;43150;50.986;18.208;2023-08-17T12:03:18;7.70;;;3.90;;
57303;SDS011;43150;50.986;18.208;2023-08-17T12:06:11;4.30;;;3.90;;
57303;SDS011;43150;50.986;18.208;2023-08-17T12:09:08;5.50;;;3.80;;
57303;SDS011;43150;50.986;18.208;2023-08-17T12:12:02;3.60;;;3.30;;
57303;SDS011;43150;50.986;18.208;2023-08-17T12:14:54;4.60;;;4.10;;
57303;SDS011;43150;50.986;18.208;2023-08-17T12:17:48;4.20;;;3.90;;
57303;SDS011;43150;50.986;18.208;2023-08-17T12:20:43;4.50;;;4.10;;
57303;SDS011;43150;50.986;18.208;2023-08-17T12:23:38;4.80;;;3.50;;
57303;SDS011;43150;50.986;18.208;2023-08-17T12:26:29;5.80;;;3.50;;
57303;SDS011;43150;50.986;18.208;2023-08-17T12:29:25;5.00;;;3.50;;
57303;SDS011;43150;50.986;18.208;2023-08-17T12:32:19;4.70;;;3.10;;
57303;SDS011;43150;50.986;18.208;2023-08-17T12:35:12;3.40;;;3.10;;
57303;SDS011;43150;50.986;18.208;2023-08-17T12:37:38;5.50;;;3.30;;
57303;SDS011;43150;50.986;18.208;2023-08-17T12:40:04;3.60;;;3.30;;
57303;SDS011;43150;50.986;18.208;2023-08-17T12:42:30;4.80;;;3.30;;
57303;SDS011;43150;50.986;18.208;2023-08-17T12:45:04;3.90;;;3.20;;
57303;SDS011;43150;50.986;18.208;2023-08-17T12:47:29;4.90;;;3.50;;
57303;SDS011;43150;50.986;18.208;2023-08-17T12:49:55;4.90;;;3.80;;
57303;SDS011;43150;50.986;18.208;2023-08-17T12:52:21;5.10;;;3.50;;
57303;SDS011;43150;50.986;18.208;2023-08-17T12:54:46;3.50;;;3.20;;
57303;SDS011;43150;50.986;18.208;2023-08-17T12:57:12;3.90;;;3.40;;
57303;SDS011;43150;50.986;18.208;2023-08-17T12:59:38;3.50;;;3.20;;
57303;SDS011;43150;50.986;18.208;2023-08-17T13:02:03;4.00;;;3.40;;
57303;SDS011;43150;50.986;18.208;2023-08-17T13:04:29;3.80;;;3.40;;
57303;SDS011;43150;50.986;18.208;2023-08-17T13:06:54;4.30;;;3.80;;
57303;SDS011;43150;50.986;18.208;2023-08-17T13:09:20;4.60;;;3.30;;
57303;SDS011;43150;50.986;18.208;2023-08-17T13:11:47;4.70;;;4.10;;
57303;SDS011;43150;50.986;18.208;2023-08-17T13:14:14;5.50;;;4.00;;
57303;SDS011;43150;50.986;18.208;2023-08-17T13:16:40;4.10;;;3.80;;
57303;SDS011;43150;50.986;18.208;2023-08-17T13:19:05;3.70;;;3.40;;
57303;SDS011;43150;50.986;18.208;2023-08-17T13:21:31;6.10;;;3.90;;
57303;SDS011;43150;50.986;18.208;2023-08-17T13:23:56;5.30;;;3.70;;
57303;SDS011;43150;50.986;18.208;2023-08-17T13:26:22;3.80;;;3.50;;
57303;SDS011;43150;50.986;18.208;2023-08-17T13:28:48;4.70;;;4.10;;
57303;SDS011;43150;50.986;18.208;2023-08-17T13:31:13;4.40;;;3.90;;
57303;SDS011;43150;50.986;18.208;2023-08-17T13:33:39;5.50;;;3.70;;
57303;SDS011;43150;50.986;18.208;2023-08-17T13:36:04;5.90;;;4.30;;
57303;SDS011;43150;50.986;18.208;2023-08-17T13:38:30;6.30;;;4.10;;
57303;SDS011;43150;50.986;18.208;2023-08-17T13:40:56;6.90;;;5.30;;
57303;SDS011;43150;50.986;18.208;2023-08-17T13:43:22;15.50;;;7.20;;
57303;SDS011;43150;50.986;18.208;2023-08-17T13:45:48;7.60;;;3.30;;
57303;SDS011;43150;50.986;18.208;2023-08-17T13:48:13;5.70;;;2.90;;
57303;SDS011;43150;50.986;18.208;2023-08-17T13:50:39;7.10;;;3.20;;
57303;SDS011;43150;50.986;18.208;2023-08-17T13:53:05;3.70;;;2.80;;
57303;SDS011;43150;50.986;18.208;2023-08-17T13:55:31;2.70;;;2.30;;
57303;SDS011;43150;50.986;18.208;2023-08-17T13:57:57;3.50;;;2.50;;
57303;SDS011;43150;50.986;18.208;2023-08-17T14:00:23;6.00;;;2.50;;
57303;SDS011;43150;50.986;18.208;2023-08-17T14:02:49;2.80;;;2.40;;
57303;SDS011;43150;50.986;18.208;2023-08-17T14:05:15;3.40;;;3.00;;
57303;SDS011;43150;50.986;18.208;2023-08-17T14:07:40;6.30;;;3.50;;
57303;SDS011;43150;50.986;18.208;2023-08-17T14:10:06;8.00;;;4.30;;
57303;SDS011;43150;50.986;18.208;2023-08-17T14:12:32;6.60;;;3.90;;
57303;SDS011;43150;50.986;18.208;2023-08-17T14:17:45;7.70;;;4.70;;
57303;SDS011;43150;50.986;18.208;2023-08-17T14:20:11;7.30;;;6.10;;
57303;SDS011;43150;50.986;18.208;2023-08-17T14:22:36;5.60;;;4.70;;
57303;SDS011;43150;50.986;18.208;2023-08-17T14:25:02;7.00;;;4.40;;
57303;SDS011;43150;50.986;18.208;2023-08-17T14:27:28;5.60;;;5.00;;
57303;SDS011;43150;50.986;18.208;2023-08-17T14:29:56;5.90;;;5.10;;
57303;SDS011;43150;50.986;18.208;2023-08-17T14:32:22;6.40;;;5.60;;
57303;SDS011;43150;50.986;18.208;2023-08-17T14:34:48;7.20;;;5.80;;
57303;SDS011;43150;50.986;18.208;2023-08-17T14:37:13;8.30;;;6.40;;
57303;SDS011;43150;50.986;18.208;2023-08-17T14:39:39;8.30;;;7.40;;
57303;SDS011;43150;50.986;18.208;2023-08-17T14:42:05;8.70;;;6.50;;
57303;SDS011;43150;50.986;18.208;2023-08-17T14:44:31;19.90;;;18.10;;
57303;SDS011;43150;50.986;18.208;2023-08-17T14:46:56;5.80;;;4.80;;
57303;SDS011;43150;50.986;18.208;2023-08-17T14:49:22;7.30;;;4.80;;
57303;SDS011;43150;50.986;18.208;2023-08-17T14:51:48;11.50;;;6.90;;
57303;SDS011;43150;50.986;18.208;2023-08-17T14:54:13;7.00;;;5.00;;
57303;SDS011;43150;50.986;18.208;2023-08-17T14:56:39;8.80;;;6.30;;
57303;SDS011;43150;50.986;18.208;2023-08-17T14:59:04;8.70;;;7.20;;
57303;SDS011;43150;50.986;18.208;2023-08-17T15:01:30;7.30;;;5.70;;
57303;SDS011;43150;50.986;18.208;2023-08-17T15:03:55;8.00;;;5.80;;
57303;SDS011;43150;50.986;18.208;2023-08-17T15:06:26;5.90;;;5.30;;
57303;SDS011;43150;50.986;18.208;2023-08-17T15:08:52;5.10;;;4.20;;
57303;SDS011;43150;50.986;18.208;2023-08-17T15:11:18;5.80;;;5.20;;
57303;SDS011;43150;50.986;18.208;2023-08-17T15:13:44;5.60;;;5.00;;
57303;SDS011;43150;50.986;18.208;2023-08-17T15:16:10;8.00;;;5.40;;
57303;SDS011;43150;50.986;18.208;2023-08-17T15:18:35;6.80;;;6.00;;
57303;SDS011;43150;50.986;18.208;2023-08-17T15:21:01;6.70;;;5.60;;
57303;SDS011;43150;50.986;18.208;2023-08-17T15:23:27;6.20;;;5.60;;
57303;SDS011;43150;50.986;18.208;2023-08-17T15:25:52;6.00;;;5.50;;
57303;SDS011;43150;50.986;18.208;2023-08-17T15:28:18;7.60;;;6.60;;
57303;SDS011;43150;50.986;18.208;2023-08-17T15:30:44;7.00;;;6.40;;
57303;SDS011;43150;50.986;18.208;2023-08-17T15:33:09;8.30;;;6.20;;
57303;SDS011;43150;50.986;18.208;2023-08-17T15:35:35;8.00;;;6.10;;
57303;SDS011;43150;50.986;18.208;2023-08-17T15:38:00;5.60;;;5.10;;
57303;SDS011;43150;50.986;18.208;2023-08-17T15:40:26;7.40;;;5.60;;
57303;SDS011;43150;50.986;18.208;2023-08-17T15:42:52;7.10;;;6.10;;
57303;SDS011;43150;50.986;18.208;2023-08-17T15:45:17;7.40;;;6.70;;
57303;SDS011;43150;50.986;18.208;2023-08-17T15:47:43;7.50;;;6.80;;
57303;SDS011;43150;50.986;18.208;2023-08-17T15:50:11;6.60;;;5.90;;
57303;SDS011;43150;50.986;18.208;2023-08-17T15:52:38;8.20;;;6.80;;
57303;SDS011;43150;50.986;18.208;2023-08-17T15:55:03;7.40;;;6.70;;
57303;SDS011;43150;50.986;18.208;2023-08-17T15:57:29;6.10;;;5.50;;
57303;SDS011;43150;50.986;18.208;2023-08-17T15:59:55;8.90;;;6.40;;
57303;SDS011;43150;50.986;18.208;2023-08-17T16:02:21;6.40;;;5.50;;
57303;SDS011;43150;50.986;18.208;2023-08-17T16:04:48;6.30;;;5.70;;
57303;SDS011;43150;50.986;18.208;2023-08-17T16:07:13;6.20;;;5.50;;
57303;SDS011;43150;50.986;18.208;2023-08-17T16:09:40;6.40;;;5.80;;
57303;SDS011;43150;50.986;18.208;2023-08-17T16:12:05;7.00;;;6.20;;
57303;SDS011;43150;50.986;18.208;2023-08-17T16:14:31;6.50;;;5.90;;
57303;SDS011;43150;50.986;18.208;2023-08-17T16:16:58;6.60;;;5.50;;
57303;SDS011;43150;50.986;18.208;2023-08-17T16:19:24;7.90;;;5.80;;
57303;SDS011;43150;50.986;18.208;2023-08-17T16:21:52;5.80;;;5.00;;
57303;SDS011;43150;50.986;18.208;2023-08-17T16:27:11;6.40;;;5.70;;
57303;SDS011;43150;50.986;18.208;2023-08-17T16:29:37;6.10;;;5.20;;
57303;SDS011;43150;50.986;18.208;2023-08-17T16:32:03;6.10;;;5.50;;
57303;SDS011;43150;50.986;18.208;2023-08-17T16:34:29;7.70;;;5.30;;
57303;SDS011;43150;50.986;18.208;2023-08-17T16:37:00;5.80;;;5.20;;
57303;SDS011;43150;50.986;18.208;2023-08-17T16:39:25;7.00;;;4.40;;
57303;SDS011;43150;50.986;18.208;2023-08-17T16:41:53;5.40;;;4.90;;
57303;SDS011;43150;50.986;18.208;2023-08-17T16:44:18;6.30;;;5.10;;
57303;SDS011;43150;50.986;18.208;2023-08-17T16:46:47;7.20;;;6.10;;
57303;SDS011;43150;50.986;18.208;2023-08-17T16:49:16;7.60;;;6.10;;
57303;SDS011;43150;50.986;18.208;2023-08-17T16:51:42;7.20;;;6.30;;
57303;SDS011;43150;50.986;18.208;2023-08-17T16:54:08;7.10;;;6.40;;
57303;SDS011;43150;50.986;18.208;2023-08-17T16:56:39;6.90;;;6.30;;
57303;SDS011;43150;50.986;18.208;2023-08-17T16:59:09;7.20;;;6.30;;
57303;SDS011;43150;50.986;18.208;2023-08-17T17:01:36;6.90;;;6.20;;
57303;SDS011;43150;50.986;18.208;2023-08-17T17:04:02;7.00;;;6.30;;
57303;SDS011;43150;50.986;18.208;2023-08-17T17:06:27;9.30;;;6.20;;
57303;SDS011;43150;50.986;18.208;2023-08-17T17:08:53;7.40;;;6.60;;
57303;SDS011;43150;50.986;18.208;2023-08-17T17:11:19;6.50;;;5.70;;
57303;SDS011;43150;50.986;18.208;2023-08-17T17:13:47;6.90;;;5.50;;
57303;SDS011;43150;50.986;18.208;2023-08-17T17:16:13;6.50;;;5.70;;
57303;SDS011;43150;50.986;18.208;2023-08-17T17:18:39;6.50;;;5.90;;
57303;SDS011;43150;50.986;18.208;2023-08-17T17:21:05;6.30;;;5.70;;
57303;SDS011;43150;50.986;18.208;2023-08-17T17:23:32;6.40;;;5.40;;
57303;SDS011;43150;50.986;18.208;2023-08-17T17:25:57;8.10;;;7.30;;
57303;SDS011;43150;50.986;18.208;2023-08-17T17:28:23;10.60;;;9.00;;
57303;SDS011;43150;50.986;18.208;2023-08-17T17:30:49;9.30;;;8.30;;
57303;SDS011;43150;50.986;18.208;2023-08-17T17:33:14;7.50;;;6.50;;
57303;SDS011;43150;50.986;18.208;2023-08-17T17:35:40;7.40;;;6.70;;
57303;SDS011;43150;50.986;18.208;2023-08-17T17:38:06;9.40;;;7.50;;
57303;SDS011;43150;50.986;18.208;2023-08-17T17:40:32;8.50;;;7.10;;
57303;SDS011;43150;50.986;18.208;2023-08-17T17:42:58;8.30;;;7.20;;
57303;SDS011;43150;50.986;18.208;2023-08-17T17:45:23;8.50;;;7.50;;
57303;SDS011;43150;50.986;18.208;2023-08-17T17:47:49;8.60;;;7.70;;
57303;SDS011;43150;50.986;18.208;2023-08-17T17:50:15;9.50;;;8.50;;
57303;SDS011;43150;50.986;18.208;2023-08-17T17:52:41;10.60;;;8.40;;
57303;SDS011;43150;50.986;18.208;2023-08-17T17:55:08;10.00;;;9.00;;
57303;SDS011;43150;50.986;18.208;2023-08-17T17:57:34;8.20;;;7.40;;
57303;SDS011;43150;50.986;18.208;2023-08-17T18:00:01;8.60;;;7.80;;
57303;SDS011;43150;50.986;18.208;2023-08-17T18:02:27;8.30;;;7.40;;
57303;SDS011;43150;50.986;18.208;2023-08-17T18:04:52;8.30;;;7.50;;
57303;SDS011;43150;50.986;18.208;2023-08-17T18:07:18;9.00;;;8.10;;
57303;SDS011;43150;50.986;18.208;2023-08-17T18:09:43;9.20;;;8.30;;
57303;SDS011;43150;50.986;18.208;2023-08-17T18:12:09;10.10;;;9.10;;
57303;SDS011;43150;50.986;18.208;2023-08-17T18:14:35;12.10;;;9.10;;
57303;SDS011;43150;50.986;18.208;2023-08-17T18:17:01;10.90;;;9.80;;
57303;SDS011;43150;50.986;18.208;2023-08-17T18:19:27;13.40;;;11.10;;
57303;SDS011;43150;50.986;18.208;2023-08-17T18:21:52;12.50;;;11.30;;
57303;SDS011;43150;50.986;18.208;2023-08-17T18:24:18;8.10;;;7.30;;
57303;SDS011;43150;50.986;18.208;2023-08-17T18:26:43;9.80;;;8.00;;
57303;SDS011;43150;50.986;18.208;2023-08-17T18:29:09;10.60;;;9.50;;
57303;SDS011;43150;50.986;18.208;2023-08-17T18:31:35;16.70;;;13.90;;
57303;SDS011;43150;50.986;18.208;2023-08-17T18:34:06;12.40;;;11.00;;
57303;SDS011;43150;50.986;18.208;2023-08-17T18:36:32;12.10;;;10.80;;
57303;SDS011;43150;50.986;18.208;2023-08-17T18:38:59;11.00;;;10.00;;
57303;SDS011;43150;50.986;18.208;2023-08-17T18:41:25;13.20;;;11.30;;
57303;SDS011;43150;50.986;18.208;2023-08-17T18:43:51;13.70;;;11.50;;
57303;SDS011;43150;50.986;18.208;2023-08-17T18:46:16;12.50;;;11.30;;
57303;SDS011;43150;50.986;18.208;2023-08-17T18:48:42;10.80;;;9.90;;
57303;SDS011;43150;50.986;18.208;2023-08-17T18:51:08;9.00;;;8.20;;
57303;SDS011;43150;50.986;18.208;2023-08-17T18:53:33;11.10;;;10.00;;
57303;SDS011;43150;50.986;18.208;2023-08-17T18:55:59;10.10;;;9.10;;
57303;SDS011;43150;50.986;18.208;2023-08-17T18:58:24;10.80;;;9.80;;
57303;SDS011;43150;50.986;18.208;2023-08-17T19:00:51;11.20;;;10.20;;
57303;SDS011;43150;50.986;18.208;2023-08-17T19:03:17;12.70;;;10.40;;
57303;SDS011;43150;50.986;18.208;2023-08-17T19:05:42;11.40;;;9.90;;
57303;SDS011;43150;50.986;18.208;2023-08-17T19:08:08;12.30;;;10.10;;
57303;SDS011;43150;50.986;18.208;2023-08-17T19:10:34;9.70;;;8.60;;
57303;SDS011;43150;50.986;18.208;2023-08-17T19:13:02;11.80;;;10.70;;
57303;SDS011;43150;50.986;18.208;2023-08-17T19:15:28;10.50;;;9.60;;
57303;SDS011;43150;50.986;18.208;2023-08-17T19:17:53;10.80;;;9.80;;
57303;SDS011;43150;50.986;18.208;2023-08-17T19:20:19;13.80;;;12.50;;
57303;SDS011;43150;50.986;18.208;2023-08-17T19:22:44;12.90;;;11.70;;
57303;SDS011;43150;50.986;18.208;2023-08-17T19:25:10;14.10;;;12.70;;
57303;SDS011;43150;50.986;18.208;2023-08-17T19:27:35;14.10;;;12.80;;
57303;SDS011;43150;50.986;18.208;2023-08-17T19:30:01;15.00;;;13.60;;